YXGE weather

Glen Innes - Rugby Park Heliport
Glen Innes, New South Wales, Australia

Public forecast

Using degrees Celsius for public forecast. Weather courtesy of forecast.io.

METAR (pilot weather report)

Closest report is Grafton Airport, 67.5 nm (124.9 km) E. Retrieved 2019/02/17 21:00 UTC (52 minutes ago):

YGFN 172100Z AUTO 00000KT 9999 // NCD 20/17 Q1013

TAF (pilot weather forecast)

Closest forecast is Tamworth Airport, 93.4 nm (173.0 km) SSW. Retrieved 2019/02/17 18:36 UTC (3 hours ago):

TAF YSTW 171657Z 1718/1812 09005KT CAVOK BECMG 1723/1801 29010KT CAVOK